Marrakesch, Marokko

02:40 PM WET am 24. November 2014 (GMT +0000)
Menara | Change Station
CLOSE
Current Station
Flughafen
Location: Marrakech,
Höhe: 1529 ft
Wetterstationen in der Umgebung

Höhe 1529 ft 31.61 °N, 8.04 °W | Updated 10 minutes ago

Mostly Cloudy
Wolkig
61 °F
gefühlte 61 °F
N
16
Wind Wechselnd Wind aus West-Südwest

Heute
Max. -- | schwach -- °F
--% Regenrisiko
Gestern
Max. -- | schwach -- °F
Precip. -- inch
7:07 AM 5:29 PM
Erstes Viertel, 5% visible
Druck 30.01 inch
Sichtweite 6.2 Meilen
Wolken Wolkig 2300 ft
Wolkig 8000 ft
Taupunkt 54 °F
Feuchtigkeit 77%
Regen 0.00 inch
Schneehöhe Nicht verfügbar..
UV 2 von 12
Pollen Nicht verfügbar..
Luftqualität Nicht verfügbar..
Flu Activity Nicht verfügbar..
METAR GMMX 241430Z 25014KT 9999 BKN023 BKN080 16/12 Q1016 NOSIG

More Conditions Fewer Conditions

Druck 30.01 inch
Sichtweite 6.2 Meilen
Wolken Wolkig 2300 ft
Wolkig 8000 ft
Taupunkt 54 °F
Feuchtigkeit 77%
Regen 0.00 inch
Schneehöhe Nicht verfügbar..
UV 2 von 12
Pollen Nicht verfügbar..
Luftqualität Nicht verfügbar..
Flu Activity Nicht verfügbar..
METAR GMMX 241430Z 25014KT 9999 BKN023 BKN080 16/12 Q1016 NOSIG

More Conditions Fewer Conditions

10-Day Weather Forecast

Almanac

Astronomie

Nov. 24, 2014 Aufgang Untergang
Genaue Zeit
Bürgerliche Dämmerung
Nautische Dämmerung
Astronomische Dämmerung
Mond
Länge des sichtbaren Lichts
Tageslänge
Tomorrow will be .
, % of the Moon is Illuminated

Heutige Rekorde

Country Highs Country Lows

Community

WunderPhotos

Upload Photos

1,773,353 Fotos hochgeladen!

WunderBlogs® & News

Nearby

Luftqualität

  Luftqualität LQ Index Schadstoff
Not available.

Schneehöhe

Station Depth Höhe

Erdbebenaktivität

Stadt Distance Mag. Time & Date
Minimum magnitude displayed is 2.5.

küstennahe Wassertemperaturen

Ort Temperatur

Wetterstationen in der Umgebung